sensor_id;sensor_type;location;lat;lon;timestamp;pressure;altitude;pressure_sealevel;temperature;humidity
52319;BME280;38258;51.148;14.068;2023-02-28T00:00:29;99621.41;;;-3.48;100.00
52319;BME280;38258;51.148;14.068;2023-02-28T00:02:56;99615.63;;;-3.44;100.00
52319;BME280;38258;51.148;14.068;2023-02-28T00:05:24;99595.84;;;-3.48;100.00
52319;BME280;38258;51.148;14.068;2023-02-28T00:07:51;99615.91;;;-3.37;100.00
52319;BME280;38258;51.148;14.068;2023-02-28T00:10:20;99611.31;;;-3.45;100.00
52319;BME280;38258;51.148;14.068;2023-02-28T00:12:50;99610.25;;;-3.50;100.00
52319;BME280;38258;51.148;14.068;2023-02-28T00:15:16;99615.91;;;-3.37;100.00
52319;BME280;38258;51.148;14.068;2023-02-28T00:17:44;99605.63;;;-3.39;100.00
52319;BME280;38258;51.148;14.068;2023-02-28T00:20:11;99603.06;;;-3.39;100.00
52319;BME280;38258;51.148;14.068;2023-02-28T00:22:40;99614.09;;;-3.22;100.00
52319;BME280;38258;51.148;14.068;2023-02-28T00:25:09;99602.16;;;-3.21;100.00
52319;BME280;38258;51.148;14.068;2023-02-28T00:27:37;99604.56;;;-3.06;100.00
52319;BME280;38258;51.148;14.068;2023-02-28T00:30:10;99600.84;;;-3.13;100.00
52319;BME280;38258;51.148;14.068;2023-02-28T00:32:37;99604.88;;;-3.18;100.00
52319;BME280;38258;51.148;14.068;2023-02-28T00:35:05;99600.78;;;-3.15;100.00
52319;BME280;38258;51.148;14.068;2023-02-28T00:37:32;99573.81;;;-3.26;100.00
52319;BME280;38258;51.148;14.068;2023-02-28T00:39:59;99600.84;;;-3.13;100.00
52319;BME280;38258;51.148;14.068;2023-02-28T00:42:27;99600.06;;;-3.30;100.00
52319;BME280;38258;51.148;14.068;2023-02-28T00:44:53;99600.72;;;-3.34;100.00
52319;BME280;38258;51.148;14.068;2023-02-28T00:47:21;99542.22;;;-3.64;100.00
52319;BME280;38258;51.148;14.068;2023-02-28T00:49:49;99606.13;;;-3.28;100.00
52319;BME280;38258;51.148;14.068;2023-02-28T00:52:16;99602.63;;;-3.30;100.00
52319;BME280;38258;51.148;14.068;2023-02-28T00:54:42;99607.75;;;-3.48;100.00
52319;BME280;38258;51.148;14.068;2023-02-28T00:57:09;99601.16;;;-3.79;100.00
52319;BME280;38258;51.148;14.068;2023-02-28T00:59:35;99602.19;;;-4.10;100.00
52319;BME280;38258;51.148;14.068;2023-02-28T01:02:02;99601.13;;;-4.49;100.00
52319;BME280;38258;51.148;14.068;2023-02-28T01:04:30;99598.97;;;-4.91;100.00
52319;BME280;38258;51.148;14.068;2023-02-28T01:07:00;99604.19;;;-5.98;100.00
52319;BME280;38258;51.148;14.068;2023-02-28T01:09:27;99610.25;;;-5.96;100.00
52319;BME280;38258;51.148;14.068;2023-02-28T01:11:54;99562.91;;;-5.92;100.00
52319;BME280;38258;51.148;14.068;2023-02-28T01:14:20;99599.25;;;-5.18;100.00
52319;BME280;38258;51.148;14.068;2023-02-28T01:16:47;99605.97;;;-5.35;100.00
52319;BME280;38258;51.148;14.068;2023-02-28T01:19:13;99599.16;;;-5.51;100.00
52319;BME280;38258;51.148;14.068;2023-02-28T01:21:41;99594.66;;;-5.55;100.00
52319;BME280;38258;51.148;14.068;2023-02-28T01:24:08;99598.75;;;-5.59;100.00
52319;BME280;38258;51.148;14.068;2023-02-28T01:26:35;99589.16;;;-5.93;100.00
52319;BME280;38258;51.148;14.068;2023-02-28T01:29:01;99593.59;;;-6.20;100.00
52319;BME280;38258;51.148;14.068;2023-02-28T01:31:28;99595.44;;;-6.18;100.00
52319;BME280;38258;51.148;14.068;2023-02-28T01:33:55;99603.63;;;-6.23;100.00
52319;BME280;38258;51.148;14.068;2023-02-28T01:36:23;99571.06;;;-6.58;100.00
52319;BME280;38258;51.148;14.068;2023-02-28T01:38:51;99597.00;;;-6.35;100.00
52319;BME280;38258;51.148;14.068;2023-02-28T01:41:21;99595.72;;;-6.28;100.00
52319;BME280;38258;51.148;14.068;2023-02-28T01:43:58;99535.66;;;-6.68;100.00
52319;BME280;38258;51.148;14.068;2023-02-28T01:46:25;99595.25;;;-6.36;100.00
52319;BME280;38258;51.148;14.068;2023-02-28T01:48:58;99581.88;;;-6.62;100.00
52319;BME280;38258;51.148;14.068;2023-02-28T01:51:30;99590.91;;;-6.52;100.00
52319;BME280;38258;51.148;14.068;2023-02-28T01:54:04;99585.72;;;-6.69;100.00
52319;BME280;38258;51.148;14.068;2023-02-28T01:56:33;99540.22;;;-7.06;100.00
52319;BME280;38258;51.148;14.068;2023-02-28T01:59:02;99586.94;;;-6.90;100.00
52319;BME280;38258;51.148;14.068;2023-02-28T02:01:30;99558.00;;;-7.21;100.00
52319;BME280;38258;51.148;14.068;2023-02-28T02:04:01;99569.03;;;-7.20;100.00
52319;BME280;38258;51.148;14.068;2023-02-28T02:06:30;99593.28;;;-7.12;100.00
52319;BME280;38258;51.148;14.068;2023-02-28T02:09:01;99587.31;;;-7.26;100.00
52319;BME280;38258;51.148;14.068;2023-02-28T02:11:28;99593.66;;;-7.19;100.00
52319;BME280;38258;51.148;14.068;2023-02-28T02:14:10;99581.09;;;-7.31;100.00
52319;BME280;38258;51.148;14.068;2023-02-28T02:16:47;99593.91;;;-7.30;100.00
52319;BME280;38258;51.148;14.068;2023-02-28T02:19:38;99587.94;;;-7.30;100.00
52319;BME280;38258;51.148;14.068;2023-02-28T02:22:26;99575.34;;;-7.56;100.00
52319;BME280;38258;51.148;14.068;2023-02-28T02:25:11;99585.81;;;-7.51;100.00
52319;BME280;38258;51.148;14.068;2023-02-28T02:27:57;99580.50;;;-7.41;100.00
52319;BME280;38258;51.148;14.068;2023-02-28T02:31:01;99585.03;;;-7.50;100.00
52319;BME280;38258;51.148;14.068;2023-02-28T02:36:48;99539.50;;;-7.74;100.00
52319;BME280;38258;51.148;14.068;2023-02-28T02:39:21;99580.63;;;-7.53;100.00
52319;BME280;38258;51.148;14.068;2023-02-28T02:41:53;99559.53;;;-7.65;100.00
52319;BME280;38258;51.148;14.068;2023-02-28T02:44:23;99576.81;;;-7.59;100.00
52319;BME280;38258;51.148;14.068;2023-02-28T02:46:53;99578.06;;;-7.39;100.00
52319;BME280;38258;51.148;14.068;2023-02-28T02:49:26;99578.88;;;-7.54;100.00
52319;BME280;38258;51.148;14.068;2023-02-28T02:51:58;99576.44;;;-7.65;100.00
52319;BME280;38258;51.148;14.068;2023-02-28T02:54:30;99541.66;;;-7.93;100.00
52319;BME280;38258;51.148;14.068;2023-02-28T02:57:02;99576.03;;;-7.72;100.00
52319;BME280;38258;51.148;14.068;2023-02-28T02:59:31;99579.28;;;-7.74;100.00
52319;BME280;38258;51.148;14.068;2023-02-28T03:02:01;99529.31;;;-8.14;100.00
52319;BME280;38258;51.148;14.068;2023-02-28T03:04:33;99542.03;;;-8.01;100.00
52319;BME280;38258;51.148;14.068;2023-02-28T03:07:03;99460.03;;;-8.67;100.00
52319;BME280;38258;51.148;14.068;2023-02-28T03:09:33;99485.09;;;-8.45;100.00
52319;BME280;38258;51.148;14.068;2023-02-28T03:12:01;99410.22;;;-8.92;100.00
52319;BME280;38258;51.148;14.068;2023-02-28T03:14:37;99534.03;;;-8.20;100.00
52319;BME280;38258;51.148;14.068;2023-02-28T03:17:22;99519.75;;;-8.32;100.00
52319;BME280;38258;51.148;14.068;2023-02-28T03:19:56;99568.03;;;-8.05;100.00
52319;BME280;38258;51.148;14.068;2023-02-28T03:22:46;99577.75;;;-8.11;100.00
52319;BME280;38258;51.148;14.068;2023-02-28T03:25:22;99532.91;;;-8.38;100.00
52319;BME280;38258;51.148;14.068;2023-02-28T03:27:59;99593.38;;;-8.18;100.00
52319;BME280;38258;51.148;14.068;2023-02-28T03:30:30;99520.31;;;-8.49;100.00
52319;BME280;38258;51.148;14.068;2023-02-28T03:33:03;99455.66;;;-8.95;100.00
52319;BME280;38258;51.148;14.068;2023-02-28T03:35:34;99474.81;;;-8.73;100.00
52319;BME280;38258;51.148;14.068;2023-02-28T03:38:08;99571.78;;;-8.25;100.00
52319;BME280;38258;51.148;14.068;2023-02-28T03:40:41;99479.19;;;-8.84;100.00
52319;BME280;38258;51.148;14.068;2023-02-28T03:43:12;99447.59;;;-9.15;100.00
52319;BME280;38258;51.148;14.068;2023-02-28T03:45:43;99577.22;;;-8.32;100.00
52319;BME280;38258;51.148;14.068;2023-02-28T03:48:15;99529.75;;;-8.74;100.00
52319;BME280;38258;51.148;14.068;2023-02-28T03:50:45;99551.94;;;-8.58;100.00
52319;BME280;38258;51.148;14.068;2023-02-28T03:53:25;99466.03;;;-9.17;100.00
52319;BME280;38258;51.148;14.068;2023-02-28T03:55:57;99586.78;;;-8.42;100.00
52319;BME280;38258;51.148;14.068;2023-02-28T03:58:29;99569.09;;;-8.67;100.00
52319;BME280;38258;51.148;14.068;2023-02-28T04:01:02;99507.19;;;-9.08;100.00
52319;BME280;38258;51.148;14.068;2023-02-28T04:03:35;99540.50;;;-8.90;100.00
52319;BME280;38258;51.148;14.068;2023-02-28T04:06:02;99549.25;;;-8.73;100.00
52319;BME280;38258;51.148;14.068;2023-02-28T04:08:31;99581.66;;;-8.69;100.00
52319;BME280;38258;51.148;14.068;2023-02-28T04:11:01;99592.16;;;-8.76;100.00
52319;BME280;38258;51.148;14.068;2023-02-28T04:13:29;99453.78;;;-9.48;100.00
52319;BME280;38258;51.148;14.068;2023-02-28T04:15:56;99571.56;;;-8.81;100.00
52319;BME280;38258;51.148;14.068;2023-02-28T04:18:23;99444.16;;;-9.66;100.00
52319;BME280;38258;51.148;14.068;2023-02-28T04:20:49;99554.94;;;-9.14;100.00
52319;BME280;38258;51.148;14.068;2023-02-28T04:23:16;99597.59;;;-8.83;100.00
52319;BME280;38258;51.148;14.068;2023-02-28T04:25:44;99520.69;;;-9.33;100.00
52319;BME280;38258;51.148;14.068;2023-02-28T04:28:11;99594.84;;;-9.24;100.00
52319;BME280;38258;51.148;14.068;2023-02-28T04:30:37;99549.94;;;-9.38;100.00
52319;BME280;38258;51.148;14.068;2023-02-28T04:33:05;99621.25;;;-9.08;100.00
52319;BME280;38258;51.148;14.068;2023-02-28T04:35:32;99538.59;;;-9.55;100.00
52319;BME280;38258;51.148;14.068;2023-02-28T04:37:58;99544.88;;;-9.62;100.00
52319;BME280;38258;51.148;14.068;2023-02-28T04:40:25;99620.16;;;-9.00;100.00
52319;BME280;38258;51.148;14.068;2023-02-28T04:42:53;99517.34;;;-9.57;100.00
52319;BME280;38258;51.148;14.068;2023-02-28T04:45:19;99539.09;;;-9.24;100.00
52319;BME280;38258;51.148;14.068;2023-02-28T04:47:46;99603.59;;;-8.95;100.00
52319;BME280;38258;51.148;14.068;2023-02-28T04:50:22;99507.75;;;-9.38;100.00
52319;BME280;38258;51.148;14.068;2023-02-28T04:52:49;99531.72;;;-9.32;100.00
52319;BME280;38258;51.148;14.068;2023-02-28T04:55:16;99556.44;;;-9.04;100.00
52319;BME280;38258;51.148;14.068;2023-02-28T04:57:42;99609.41;;;-8.58;100.00
52319;BME280;38258;51.148;14.068;2023-02-28T05:00:11;99615.19;;;-8.47;100.00
52319;BME280;38258;51.148;14.068;2023-02-28T05:02:42;99612.38;;;-8.39;100.00
52319;BME280;38258;51.148;14.068;2023-02-28T05:05:08;99488.59;;;-9.20;100.00
52319;BME280;38258;51.148;14.068;2023-02-28T05:07:35;99539.13;;;-8.73;100.00
52319;BME280;38258;51.148;14.068;2023-02-28T05:10:02;99612.44;;;-8.12;100.00
52319;BME280;38258;51.148;14.068;2023-02-28T05:12:28;99470.59;;;-8.86;100.00
52319;BME280;38258;51.148;14.068;2023-02-28T05:14:55;99605.03;;;-7.95;100.00
52319;BME280;38258;51.148;14.068;2023-02-28T05:17:23;99453.41;;;-8.90;100.00
52319;BME280;38258;51.148;14.068;2023-02-28T05:19:50;99621.44;;;-7.90;100.00
52319;BME280;38258;51.148;14.068;2023-02-28T05:22:16;99625.69;;;-7.77;100.00
52319;BME280;38258;51.148;14.068;2023-02-28T05:24:43;99437.06;;;-8.69;100.00
52319;BME280;38258;51.148;14.068;2023-02-28T05:27:10;99475.81;;;-8.58;100.00
52319;BME280;38258;51.148;14.068;2023-02-28T05:29:37;99561.97;;;-7.93;100.00
52319;BME280;38258;51.148;14.068;2023-02-28T05:32:08;99619.53;;;-7.67;100.00
52319;BME280;38258;51.148;14.068;2023-02-28T05:34:37;99618.44;;;-7.84;100.00
52319;BME280;38258;51.148;14.068;2023-02-28T05:37:04;99613.44;;;-7.96;100.00
52319;BME280;38258;51.148;14.068;2023-02-28T05:39:32;99593.28;;;-8.20;100.00
52319;BME280;38258;51.148;14.068;2023-02-28T05:41:59;99467.69;;;-8.79;100.00
52319;BME280;38258;51.148;14.068;2023-02-28T05:44:25;99619.94;;;-8.13;100.00
52319;BME280;38258;51.148;14.068;2023-02-28T05:46:52;99520.78;;;-8.69;100.00
52319;BME280;38258;51.148;14.068;2023-02-28T05:49:19;99611.81;;;-8.21;100.00
52319;BME280;38258;51.148;14.068;2023-02-28T05:51:47;99623.69;;;-8.33;100.00
52319;BME280;38258;51.148;14.068;2023-02-28T05:54:21;99631.75;;;-8.27;100.00
52319;BME280;38258;51.148;14.068;2023-02-28T05:57:11;99638.94;;;-8.33;100.00
52319;BME280;38258;51.148;14.068;2023-02-28T05:59:37;99586.47;;;-8.46;100.00
52319;BME280;38258;51.148;14.068;2023-02-28T06:02:05;99522.25;;;-8.98;100.00
52319;BME280;38258;51.148;14.068;2023-02-28T06:04:32;99487.84;;;-8.94;100.00
52319;BME280;38258;51.148;14.068;2023-02-28T06:07:00;99626.28;;;-8.20;100.00
52319;BME280;38258;51.148;14.068;2023-02-28T06:09:34;99632.44;;;-8.16;100.00
52319;BME280;38258;51.148;14.068;2023-02-28T06:12:02;99636.66;;;-8.03;100.00
52319;BME280;38258;51.148;14.068;2023-02-28T06:14:31;99600.34;;;-8.16;100.00
52319;BME280;38258;51.148;14.068;2023-02-28T06:16:58;99614.63;;;-7.77;100.00
52319;BME280;38258;51.148;14.068;2023-02-28T06:19:26;99455.13;;;-8.64;100.00
52319;BME280;38258;51.148;14.068;2023-02-28T06:21:54;99648.16;;;-7.29;100.00
52319;BME280;38258;51.148;14.068;2023-02-28T06:24:25;99633.56;;;-7.05;100.00
52319;BME280;38258;51.148;14.068;2023-02-28T06:26:53;99521.03;;;-7.71;100.00
52319;BME280;38258;51.148;14.068;2023-02-28T06:29:19;99560.59;;;-7.48;100.00
52319;BME280;38258;51.148;14.068;2023-02-28T06:31:47;99551.88;;;-7.52;100.00
52319;BME280;38258;51.148;14.068;2023-02-28T06:34:14;99596.53;;;-7.28;100.00
52319;BME280;38258;51.148;14.068;2023-02-28T06:36:41;99492.81;;;-8.03;100.00
52319;BME280;38258;51.148;14.068;2023-02-28T06:39:09;99637.19;;;-7.15;100.00
52319;BME280;38258;51.148;14.068;2023-02-28T06:41:37;99593.50;;;-7.49;100.00
52319;BME280;38258;51.148;14.068;2023-02-28T06:44:08;99675.13;;;-7.04;100.00
52319;BME280;38258;51.148;14.068;2023-02-28T06:46:38;99633.81;;;-7.42;100.00
52319;BME280;38258;51.148;14.068;2023-02-28T06:49:05;99671.63;;;-7.20;100.00
52319;BME280;38258;51.148;14.068;2023-02-28T06:51:34;99665.75;;;-7.19;100.00
52319;BME280;38258;51.148;14.068;2023-02-28T06:54:01;99684.81;;;-6.99;100.00
52319;BME280;38258;51.148;14.068;2023-02-28T06:56:27;99510.69;;;-7.88;100.00
52319;BME280;38258;51.148;14.068;2023-02-28T06:58:55;99657.09;;;-6.80;100.00
52319;BME280;38258;51.148;14.068;2023-02-28T07:01:22;99669.31;;;-6.46;100.00
52319;BME280;38258;51.148;14.068;2023-02-28T07:03:50;99682.41;;;-6.12;100.00
52319;BME280;38258;51.148;14.068;2023-02-28T07:06:17;99669.75;;;-5.95;100.00
52319;BME280;38258;51.148;14.068;2023-02-28T07:08:44;99687.88;;;-5.60;100.00
52319;BME280;38258;51.148;14.068;2023-02-28T07:11:10;99679.56;;;-5.26;100.00
52319;BME280;38258;51.148;14.068;2023-02-28T07:13:37;99662.59;;;-5.41;100.00
52319;BME280;38258;51.148;14.068;2023-02-28T07:16:06;99687.31;;;-5.25;100.00
52319;BME280;38258;51.148;14.068;2023-02-28T07:18:34;99688.13;;;-4.94;100.00
52319;BME280;38258;51.148;14.068;2023-02-28T07:21:02;99689.53;;;-4.99;100.00
52319;BME280;38258;51.148;14.068;2023-02-28T07:23:29;99689.63;;;-4.66;100.00
52319;BME280;38258;51.148;14.068;2023-02-28T07:25:55;99684.19;;;-5.04;100.00
52319;BME280;38258;51.148;14.068;2023-02-28T07:28:22;99663.53;;;-5.08;100.00
52319;BME280;38258;51.148;14.068;2023-02-28T07:30:49;99679.69;;;-4.28;100.00
52319;BME280;38258;51.148;14.068;2023-02-28T07:33:17;99647.78;;;-4.85;100.00
52319;BME280;38258;51.148;14.068;2023-02-28T07:35:44;99667.56;;;-3.98;100.00
52319;BME280;38258;51.148;14.068;2023-02-28T07:38:10;99656.75;;;-3.75;100.00
52319;BME280;38258;51.148;14.068;2023-02-28T07:40:39;99683.59;;;-3.31;100.00
52319;BME280;38258;51.148;14.068;2023-02-28T07:43:05;99694.53;;;-3.70;100.00
52319;BME280;38258;51.148;14.068;2023-02-28T07:45:32;99666.34;;;-3.88;100.00
52319;BME280;38258;51.148;14.068;2023-02-28T07:47:59;99679.53;;;-3.27;100.00
52319;BME280;38258;51.148;14.068;2023-02-28T07:50:27;99695.84;;;-2.89;100.00
52319;BME280;38258;51.148;14.068;2023-02-28T07:52:56;99699.88;;;-3.12;100.00
52319;BME280;38258;51.148;14.068;2023-02-28T07:55:22;99702.47;;;-2.74;100.00
52319;BME280;38258;51.148;14.068;2023-02-28T07:57:49;99703.50;;;-2.71;100.00
52319;BME280;38258;51.148;14.068;2023-02-28T08:00:16;99694.47;;;-2.62;100.00
52319;BME280;38258;51.148;14.068;2023-02-28T08:02:42;99698.59;;;-2.46;100.00
52319;BME280;38258;51.148;14.068;2023-02-28T08:05:09;99702.00;;;-2.28;100.00
52319;BME280;38258;51.148;14.068;2023-02-28T08:07:37;99703.13;;;-2.01;100.00
52319;BME280;38258;51.148;14.068;2023-02-28T08:10:05;99702.78;;;-2.09;100.00
52319;BME280;38258;51.148;14.068;2023-02-28T08:12:31;99699.72;;;-2.21;100.00
52319;BME280;38258;51.148;14.068;2023-02-28T08:14:58;99697.91;;;-1.83;100.00
52319;BME280;38258;51.148;14.068;2023-02-28T08:17:25;99686.66;;;-1.65;100.00
52319;BME280;38258;51.148;14.068;2023-02-28T08:19:51;99700.63;;;-1.37;100.00
52319;BME280;38258;51.148;14.068;2023-02-28T08:22:18;99697.91;;;-1.42;100.00
52319;BME280;38258;51.148;14.068;2023-02-28T08:24:46;99688.56;;;-1.61;100.00
52319;BME280;38258;51.148;14.068;2023-02-28T08:27:12;99700.41;;;-1.44;100.00
52319;BME280;38258;51.148;14.068;2023-02-28T08:29:39;99701.63;;;-1.12;100.00
52319;BME280;38258;51.148;14.068;2023-02-28T08:32:06;99694.44;;;-1.43;100.00
52319;BME280;38258;51.148;14.068;2023-02-28T08:34:33;99706.34;;;-1.02;100.00
52319;BME280;38258;51.148;14.068;2023-02-28T08:36:59;99697.63;;;-1.48;100.00
52319;BME280;38258;51.148;14.068;2023-02-28T08:39:26;99700.31;;;-1.24;100.00
52319;BME280;38258;51.148;14.068;2023-02-28T08:41:53;99681.69;;;-1.41;100.00
52319;BME280;38258;51.148;14.068;2023-02-28T08:44:20;99703.03;;;-1.83;100.00
52319;BME280;38258;51.148;14.068;2023-02-28T08:46:48;99696.31;;;-1.17;100.00
52319;BME280;38258;51.148;14.068;2023-02-28T08:49:15;99704.28;;;-0.88;100.00
52319;BME280;38258;51.148;14.068;2023-02-28T08:51:41;99706.81;;;-0.67;100.00
52319;BME280;38258;51.148;14.068;2023-02-28T08:54:08;99715.09;;;-1.39;100.00
52319;BME280;38258;51.148;14.068;2023-02-28T08:56:37;99715.63;;;-0.83;100.00
52319;BME280;38258;51.148;14.068;2023-02-28T08:59:05;99709.31;;;-0.46;100.00
52319;BME280;38258;51.148;14.068;2023-02-28T09:01:32;99717.75;;;-0.50;100.00
52319;BME280;38258;51.148;14.068;2023-02-28T09:03:59;99710.44;;;-0.62;100.00
52319;BME280;38258;51.148;14.068;2023-02-28T09:06:27;99706.09;;;-0.40;100.00
52319;BME280;38258;51.148;14.068;2023-02-28T09:08:56;99691.41;;;-0.44;100.00
52319;BME280;38258;51.148;14.068;2023-02-28T09:11:24;99706.41;;;0.17;100.00
52319;BME280;38258;51.148;14.068;2023-02-28T09:13:50;99707.44;;;0.48;100.00
52319;BME280;38258;51.148;14.068;2023-02-28T09:16:19;99711.88;;;0.02;100.00
52319;BME280;38258;51.148;14.068;2023-02-28T09:18:45;99706.06;;;0.07;100.00
52319;BME280;38258;51.148;14.068;2023-02-28T09:21:14;99708.41;;;-0.23;100.00
52319;BME280;38258;51.148;14.068;2023-02-28T09:23:42;99699.25;;;0.08;100.00
52319;BME280;38258;51.148;14.068;2023-02-28T09:26:13;99710.25;;;1.65;100.00
52319;BME280;38258;51.148;14.068;2023-02-28T09:28:40;99705.44;;;1.20;100.00
52319;BME280;38258;51.148;14.068;2023-02-28T09:31:11;99708.84;;;0.38;100.00
52319;BME280;38258;51.148;14.068;2023-02-28T09:33:40;99699.19;;;-0.18;100.00
52319;BME280;38258;51.148;14.068;2023-02-28T09:36:07;99713.84;;;0.87;100.00
52319;BME280;38258;51.148;14.068;2023-02-28T09:38:34;99706.22;;;0.90;100.00
52319;BME280;38258;51.148;14.068;2023-02-28T09:41:03;99677.50;;;1.34;100.00
52319;BME280;38258;51.148;14.068;2023-02-28T09:43:38;99699.53;;;2.14;98.90
52319;BME280;38258;51.148;14.068;2023-02-28T09:46:12;99703.66;;;2.41;93.28
52319;BME280;38258;51.148;14.068;2023-02-28T09:48:44;99697.03;;;2.17;87.00
52319;BME280;38258;51.148;14.068;2023-02-28T09:51:20;99697.34;;;2.63;87.40
52319;BME280;38258;51.148;14.068;2023-02-28T09:53:50;99704.47;;;2.06;85.68
52319;BME280;38258;51.148;14.068;2023-02-28T09:56:20;99711.50;;;2.44;80.10
52319;BME280;38258;51.148;14.068;2023-02-28T09:58:52;99709.22;;;2.57;73.47
52319;BME280;38258;51.148;14.068;2023-02-28T10:01:25;99711.00;;;2.94;80.14
52319;BME280;38258;51.148;14.068;2023-02-28T10:03:59;99707.16;;;2.77;81.74
52319;BME280;38258;51.148;14.068;2023-02-28T10:06:30;99700.94;;;1.41;85.50
52319;BME280;38258;51.148;14.068;2023-02-28T10:09:02;99713.41;;;-0.04;96.38
52319;BME280;38258;51.148;14.068;2023-02-28T10:11:33;99727.28;;;-1.35;100.00
52319;BME280;38258;51.148;14.068;2023-02-28T10:14:05;99721.00;;;-1.63;100.00
52319;BME280;38258;51.148;14.068;2023-02-28T10:16:38;99718.88;;;-0.87;100.00
52319;BME280;38258;51.148;14.068;2023-02-28T10:19:13;99720.19;;;1.24;98.56
52319;BME280;38258;51.148;14.068;2023-02-28T10:21:43;99723.97;;;0.54;90.16
52319;BME280;38258;51.148;14.068;2023-02-28T10:24:20;99726.75;;;-0.38;97.99
52319;BME280;38258;51.148;14.068;2023-02-28T10:26:52;99729.69;;;-0.50;96.64
52319;BME280;38258;51.148;14.068;2023-02-28T10:29:22;99729.69;;;-0.96;100.00
52319;BME280;38258;51.148;14.068;2023-02-28T10:31:49;99735.97;;;-0.66;100.00
52319;BME280;38258;51.148;14.068;2023-02-28T10:34:17;99729.94;;;-0.44;100.00
52319;BME280;38258;51.148;14.068;2023-02-28T10:36:44;99724.28;;;-0.35;97.22
52319;BME280;38258;51.148;14.068;2023-02-28T10:39:39;99724.66;;;-0.24;98.88
52319;BME280;38258;51.148;14.068;2023-02-28T10:42:20;99722.03;;;-0.94;100.00
52319;BME280;38258;51.148;14.068;2023-02-28T10:44:59;99720.81;;;0.37;100.00
52319;BME280;38258;51.148;14.068;2023-02-28T10:47:32;99721.78;;;-0.09;91.26
52319;BME280;38258;51.148;14.068;2023-02-28T10:50:01;99687.53;;;-0.08;95.63
52319;BME280;38258;51.148;14.068;2023-02-28T10:52:35;99710.47;;;0.62;93.88
52319;BME280;38258;51.148;14.068;2023-02-28T10:55:21;99703.94;;;1.86;85.44
52319;BME280;38258;51.148;14.068;2023-02-28T10:57:49;99698.00;;;2.56;87.30
52319;BME280;38258;51.148;14.068;2023-02-28T11:00:18;99702.06;;;2.12;80.36
52319;BME280;38258;51.148;14.068;2023-02-28T11:02:45;99701.41;;;2.20;83.19
52319;BME280;38258;51.148;14.068;2023-02-28T11:05:28;99701.41;;;1.28;78.59
52319;BME280;38258;51.148;14.068;2023-02-28T11:08:03;99703.72;;;0.91;78.86
52319;BME280;38258;51.148;14.068;2023-02-28T11:10:32;99704.56;;;0.38;78.30
52319;BME280;38258;51.148;14.068;2023-02-28T11:13:00;99690.38;;;0.77;81.17
52319;BME280;38258;51.148;14.068;2023-02-28T11:15:30;99704.56;;;1.19;84.33
52319;BME280;38258;51.148;14.068;2023-02-28T11:18:00;99704.19;;;0.79;78.96
52319;BME280;38258;51.148;14.068;2023-02-28T11:20:31;99691.81;;;1.53;76.89
52319;BME280;38258;51.148;14.068;2023-02-28T11:23:01;99689.28;;;1.85;72.54
52319;BME280;38258;51.148;14.068;2023-02-28T11:25:30;99689.19;;;2.14;74.40
52319;BME280;38258;51.148;14.068;2023-02-28T11:27:59;99673.47;;;2.38;73.45
52319;BME280;38258;51.148;14.068;2023-02-28T11:30:33;99665.25;;;2.90;71.52
52319;BME280;38258;51.148;14.068;2023-02-28T11:33:01;99667.19;;;3.39;69.00
52319;BME280;38258;51.148;14.068;2023-02-28T11:35:48;99675.13;;;3.91;68.08
52319;BME280;38258;51.148;14.068;2023-02-28T11:38:16;99666.38;;;3.42;68.66
52319;BME280;38258;51.148;14.068;2023-02-28T11:40:48;99674.78;;;1.90;70.28
52319;BME280;38258;51.148;14.068;2023-02-28T11:43:29;99668.81;;;2.59;71.94
52319;BME280;38258;51.148;14.068;2023-02-28T11:46:07;99665.63;;;3.47;71.96
52319;BME280;38258;51.148;14.068;2023-02-28T11:48:46;99668.97;;;1.65;72.39
52319;BME280;38258;51.148;14.068;2023-02-28T11:51:22;99636.13;;;0.45;83.75
52319;BME280;38258;51.148;14.068;2023-02-28T11:53:59;99667.91;;;0.46;87.17
52319;BME280;38258;51.148;14.068;2023-02-28T11:56:36;99668.44;;;0.63;87.00
52319;BME280;38258;51.148;14.068;2023-02-28T12:02:20;99659.72;;;1.14;84.40
52319;BME280;38258;51.148;14.068;2023-02-28T12:04:57;99664.06;;;1.75;87.39
52319;BME280;38258;51.148;14.068;2023-02-28T12:07:37;99661.13;;;2.26;76.87
52319;BME280;38258;51.148;14.068;2023-02-28T12:10:20;99660.28;;;2.61;78.08
52319;BME280;38258;51.148;14.068;2023-02-28T12:12:57;99666.22;;;1.30;88.97
52319;BME280;38258;51.148;14.068;2023-02-28T12:15:44;99660.66;;;2.78;82.85
52319;BME280;38258;51.148;14.068;2023-02-28T12:18:29;99665.59;;;1.37;83.02
52319;BME280;38258;51.148;14.068;2023-02-28T12:21:01;99667.09;;;1.60;88.44
52319;BME280;38258;51.148;14.068;2023-02-28T12:23:57;99662.81;;;1.31;89.27
52319;BME280;38258;51.148;14.068;2023-02-28T12:26:34;99664.72;;;2.67;84.50
52319;BME280;38258;51.148;14.068;2023-02-28T12:29:10;99667.09;;;0.74;87.20
52319;BME280;38258;51.148;14.068;2023-02-28T12:31:43;99659.91;;;1.80;85.91
52319;BME280;38258;51.148;14.068;2023-02-28T12:34:13;99663.31;;;1.48;82.08
52319;BME280;38258;51.148;14.068;2023-02-28T12:36:43;99657.88;;;2.69;78.31
52319;BME280;38258;51.148;14.068;2023-02-28T12:39:16;99657.09;;;3.51;77.53
52319;BME280;38258;51.148;14.068;2023-02-28T12:41:50;99664.16;;;2.10;82.49
52319;BME280;38258;51.148;14.068;2023-02-28T12:44:22;99662.78;;;2.95;76.65
52319;BME280;38258;51.148;14.068;2023-02-28T12:46:55;99662.88;;;2.28;80.00
52319;BME280;38258;51.148;14.068;2023-02-28T12:49:30;99650.13;;;1.08;79.91
52319;BME280;38258;51.148;14.068;2023-02-28T12:51:59;99652.16;;;2.47;87.32
52319;BME280;38258;51.148;14.068;2023-02-28T12:54:34;99640.78;;;2.05;81.44
52319;BME280;38258;51.148;14.068;2023-02-28T12:57:06;99655.94;;;1.61;78.84
52319;BME280;38258;51.148;14.068;2023-02-28T12:59:38;99645.09;;;1.13;83.41
52319;BME280;38258;51.148;14.068;2023-02-28T13:11:38;99633.16;;;1.46;92.77
52319;BME280;38258;51.148;14.068;2023-02-28T13:14:14;99642.66;;;0.89;90.99
52319;BME280;38258;51.148;14.068;2023-02-28T13:17:09;99632.72;;;1.30;90.07